createdAt,value
2022-09-21T00:01:07.929Z,11.46
2022-09-21T00:03:09.635Z,11.43
2022-09-21T00:05:11.243Z,11.05
2022-09-21T00:07:12.871Z,10.75
2022-09-21T00:09:14.524Z,10.45
2022-09-21T00:11:21.034Z,10.44
2022-09-21T00:13:22.892Z,10.25
2022-09-21T00:15:24.952Z,10.23
2022-09-21T00:17:26.543Z,10.14
2022-09-21T00:19:28.200Z,10.13
2022-09-21T00:21:30.484Z,10.28
2022-09-21T00:23:32.136Z,10.33
2022-09-21T00:25:33.834Z,10.22
2022-09-21T00:27:35.611Z,10.32
2022-09-21T00:29:37.362Z,10.47
2022-09-21T00:31:39.019Z,10.66
2022-09-21T00:33:41.338Z,10.67
2022-09-21T00:35:42.889Z,10.47
2022-09-21T00:37:44.763Z,10.30
2022-09-21T00:39:46.463Z,10.20
2022-09-21T00:41:49.300Z,10.10
2022-09-21T00:44:18.627Z,9.95
2022-09-21T00:46:31.014Z,9.95
2022-09-21T00:48:33.419Z,9.82
2022-09-21T00:50:35.794Z,9.88
2022-09-21T00:52:48.742Z,9.76
2022-09-21T00:54:50.548Z,9.77
2022-09-21T00:56:52.280Z,9.91
2022-09-21T00:58:55.081Z,10.01
2022-09-21T01:00:59.557Z,10.08
2022-09-21T01:03:01.542Z,10.12
2022-09-21T01:05:04.990Z,10.14
2022-09-21T01:07:12.371Z,10.10
2022-09-21T01:09:14.808Z,9.95
2022-09-21T01:11:28.322Z,9.79
2022-09-21T01:13:51.180Z,9.39
2022-09-21T01:16:15.958Z,9.16
2022-09-21T01:18:33.088Z,9.27
2022-09-21T01:21:00.529Z,9.20
2022-09-21T01:23:38.610Z,8.45
2022-09-21T01:25:49.008Z,8.45
2022-09-21T01:28:30.383Z,8.50
2022-09-21T01:30:34.226Z,8.65
2022-09-21T01:32:40.704Z,8.85
2022-09-21T01:34:52.887Z,9.12
2022-09-21T01:36:57.958Z,9.31
2022-09-21T01:39:05.783Z,9.44
2022-09-21T01:41:08.607Z,9.55
2022-09-21T01:43:14.376Z,9.60
2022-09-21T01:45:19.475Z,9.68
2022-09-21T01:47:21.364Z,9.78
2022-09-21T01:49:36.857Z,9.86
2022-09-21T01:51:43.744Z,9.93
2022-09-21T01:53:50.581Z,9.97
2022-09-21T01:55:55.653Z,9.98
2022-09-21T01:58:02.616Z,10.01
2022-09-21T02:00:05.711Z,10.02
2022-09-21T02:02:13.726Z,10.04
2022-09-21T02:04:15.573Z,9.86
2022-09-21T02:06:18.348Z,9.69
2022-09-21T02:08:20.273Z,9.54
2022-09-21T02:10:32.610Z,9.42
2022-09-21T02:12:34.714Z,9.05
2022-09-21T02:14:37.365Z,9.06
2022-09-21T02:16:56.383Z,9.14
2022-09-21T02:19:39.608Z,9.07
2022-09-21T02:21:57.362Z,9.05
2022-09-21T02:24:04.860Z,8.94
2022-09-21T02:26:06.829Z,8.90
2022-09-21T02:28:32.513Z,8.82
2022-09-21T02:30:35.953Z,8.60
2022-09-21T02:32:43.613Z,8.44
2022-09-21T02:34:49.574Z,8.48
2022-09-21T02:36:59.802Z,8.47
2022-09-21T02:39:32.697Z,8.41
2022-09-21T02:41:57.521Z,8.49
2022-09-21T02:44:13.827Z,8.61
2022-09-21T02:46:18.554Z,8.84
2022-09-21T02:48:29.119Z,9.06
2022-09-21T02:50:36.800Z,9.14
2022-09-21T02:52:41.205Z,9.20
2022-09-21T02:54:45.337Z,9.21
2022-09-21T02:56:48.833Z,9.17
2022-09-21T02:58:57.055Z,8.95
2022-09-21T03:00:59.525Z,8.81
2022-09-21T03:03:01.120Z,8.84
2022-09-21T03:05:02.811Z,8.95
2022-09-21T03:07:05.059Z,9.13
2022-09-21T03:09:06.675Z,9.30
2022-09-21T03:11:08.333Z,9.20
2022-09-21T03:13:10.664Z,9.19
2022-09-21T03:15:12.285Z,9.26
2022-09-21T03:17:14.218Z,9.32
2022-09-21T03:19:15.884Z,9.37
2022-09-21T03:21:17.789Z,9.38
2022-09-21T03:23:19.714Z,9.20
2022-09-21T03:25:21.282Z,9.06
2022-09-21T03:27:24.199Z,8.98
2022-09-21T03:29:25.797Z,9.05
2022-09-21T03:31:27.391Z,8.88
2022-09-21T03:33:29.006Z,8.84
2022-09-21T03:35:30.640Z,8.90
2022-09-21T03:37:32.208Z,9.00
2022-09-21T03:39:34.032Z,9.12
2022-09-21T03:41:35.690Z,9.25
2022-09-21T03:43:37.286Z,9.32
2022-09-21T03:45:40.983Z,9.33
2022-09-21T03:47:42.986Z,9.36
2022-09-21T03:49:44.561Z,9.14
2022-09-21T03:51:46.194Z,8.64
2022-09-21T03:53:47.835Z,8.34
2022-09-21T03:55:49.979Z,8.06
2022-09-21T03:57:51.650Z,7.79
2022-09-21T03:59:54.359Z,7.99
2022-09-21T04:01:55.970Z,8.26
2022-09-21T04:03:57.522Z,8.41
2022-09-21T04:05:59.358Z,8.61
2022-09-21T04:08:02.197Z,8.80
2022-09-21T04:10:06.858Z,8.99
2022-09-21T04:12:08.537Z,9.17
2022-09-21T04:14:12.141Z,9.28
2022-09-21T04:16:13.744Z,9.29
2022-09-21T04:18:15.346Z,9.32
2022-09-21T04:20:17.167Z,9.14
2022-09-21T04:22:18.835Z,9.06
2022-09-21T04:24:20.420Z,9.17
2022-09-21T04:26:25.854Z,9.35
2022-09-21T04:28:27.453Z,9.46
2022-09-21T04:30:32.097Z,9.61
2022-09-21T04:32:36.060Z,9.69
2022-09-21T04:34:39.568Z,9.74
2022-09-21T04:36:41.134Z,9.91
2022-09-21T04:38:42.772Z,9.97
2022-09-21T04:40:44.327Z,10.06
2022-09-21T04:42:51.436Z,10.14
2022-09-21T04:44:53.184Z,10.18
2022-09-21T04:46:54.769Z,10.23
2022-09-21T04:48:56.437Z,10.29
2022-09-21T04:50:58.504Z,10.29
2022-09-21T04:53:00.206Z,10.36
2022-09-21T04:55:01.768Z,10.44
2022-09-21T04:57:03.604Z,10.54
2022-09-21T04:59:05.361Z,10.61
2022-09-21T05:01:07.714Z,10.43
2022-09-21T05:03:28.158Z,10.32
2022-09-21T05:05:29.734Z,10.30
2022-09-21T05:07:31.338Z,10.35
2022-09-21T05:09:51.746Z,9.98
2022-09-21T05:11:54.182Z,9.78
2022-09-21T05:13:55.787Z,9.61
2022-09-21T05:15:57.614Z,9.27
2022-09-21T05:17:59.207Z,9.45
2022-09-21T05:20:00.858Z,9.66
2022-09-21T05:22:02.830Z,9.57
2022-09-21T05:24:04.687Z,9.61
2022-09-21T05:26:06.857Z,9.46
2022-09-21T05:28:08.799Z,9.48
2022-09-21T05:30:10.946Z,9.42
2022-09-21T05:32:14.431Z,9.66
2022-09-21T05:34:29.447Z,9.67
2022-09-21T05:36:38.532Z,9.56
2022-09-21T05:38:40.561Z,9.50
2022-09-21T05:40:42.457Z,9.40
2022-09-21T05:42:44.518Z,9.26
2022-09-21T05:44:49.519Z,9.27
2022-09-21T05:47:15.724Z,9.43
2022-09-21T05:49:45.397Z,9.49
2022-09-21T05:52:09.202Z,9.29
2022-09-21T05:54:55.477Z,9.59
2022-09-21T05:57:11.012Z,9.97
2022-09-21T05:59:31.230Z,10.15
2022-09-21T06:01:35.703Z,10.14
2022-09-21T06:03:37.464Z,10.38
2022-09-21T06:05:40.202Z,10.49
2022-09-21T06:07:42.190Z,10.40
2022-09-21T06:09:43.844Z,10.52
2022-09-21T06:11:45.539Z,10.26
2022-09-21T06:13:47.187Z,9.89
2022-09-21T06:15:49.170Z,9.90
2022-09-21T06:17:50.720Z,10.00
2022-09-21T06:19:52.383Z,10.05
2022-09-21T06:21:54.034Z,10.10
2022-09-21T06:23:55.638Z,10.22
2022-09-21T06:25:58.740Z,10.31
2022-09-21T06:28:10.666Z,10.10
2022-09-21T06:30:12.518Z,10.27
2022-09-21T06:32:14.060Z,10.23
2022-09-21T06:34:15.890Z,10.16
2022-09-21T06:36:17.857Z,10.23
2022-09-21T06:38:19.428Z,10.30
2022-09-21T06:40:21.130Z,10.60
2022-09-21T06:42:22.773Z,10.76
2022-09-21T06:44:24.396Z,10.32
2022-09-21T06:46:26.076Z,10.51
2022-09-21T06:48:28.917Z,10.62
2022-09-21T06:50:30.476Z,10.77
2022-09-21T06:52:33.219Z,10.91
2022-09-21T06:54:34.777Z,10.90
2022-09-21T06:56:36.601Z,10.91
2022-09-21T06:58:38.768Z,11.27
2022-09-21T07:00:40.332Z,11.35
2022-09-21T07:02:45.525Z,11.42
2022-09-21T07:04:47.181Z,11.54
2022-09-21T07:06:49.391Z,11.64
2022-09-21T07:11:15.430Z,12.08
2022-09-21T07:13:17.873Z,12.23
2022-09-21T07:15:19.618Z,12.48
2022-09-21T07:17:21.853Z,12.54
2022-09-21T07:19:23.520Z,12.48
2022-09-21T07:21:25.094Z,12.56
2022-09-21T07:23:26.721Z,12.59
2022-09-21T07:25:29.138Z,11.81
2022-09-21T07:27:32.208Z,11.80
2022-09-21T07:29:33.972Z,11.28
2022-09-21T07:31:35.633Z,11.00
2022-09-21T07:33:37.658Z,10.66
2022-09-21T07:35:39.376Z,10.62
2022-09-21T07:37:40.925Z,10.82
2022-09-21T07:39:42.641Z,11.24
2022-09-21T07:41:44.307Z,11.56
2022-09-21T07:43:45.982Z,11.82
2022-09-21T07:45:57.035Z,12.02
2022-09-21T07:48:05.430Z,11.88
2022-09-21T07:50:07.293Z,11.54
2022-09-21T07:52:11.092Z,11.77
2022-09-21T07:54:13.616Z,11.33
2022-09-21T07:56:16.850Z,11.24
2022-09-21T07:58:37.179Z,11.46
2022-09-21T08:00:38.924Z,11.19
2022-09-21T08:02:45.138Z,11.36
2022-09-21T08:04:48.978Z,11.51
2022-09-21T08:06:50.620Z,11.81
2022-09-21T08:08:57.206Z,11.86
2022-09-21T08:11:04.158Z,11.74
2022-09-21T08:13:06.322Z,11.67
2022-09-21T08:15:20.385Z,12.12
2022-09-21T08:17:26.848Z,11.93
2022-09-21T08:19:28.597Z,11.83
2022-09-21T08:21:30.268Z,11.97
2022-09-21T08:23:31.882Z,12.25
2022-09-21T08:25:34.351Z,12.46
2022-09-21T08:27:36.168Z,12.81
2022-09-21T08:29:37.740Z,13.02
2022-09-21T08:31:39.804Z,13.17
2022-09-21T08:33:41.435Z,13.37
2022-09-21T08:35:43.011Z,13.42
2022-09-21T08:37:44.613Z,13.26
2022-09-21T08:39:46.253Z,13.12
2022-09-21T08:42:10.563Z,12.47
2022-09-21T08:44:16.837Z,12.75
2022-09-21T08:46:24.851Z,13.02
2022-09-21T08:48:34.428Z,12.38
2022-09-21T08:50:42.931Z,12.41
2022-09-21T08:52:47.412Z,12.77
2022-09-21T08:54:53.592Z,13.17
2022-09-21T08:57:11.250Z,13.46
2022-09-21T08:59:15.553Z,13.48
2022-09-21T09:01:20.115Z,12.76
2022-09-21T09:03:48.324Z,12.99
2022-09-21T09:06:01.870Z,13.20
2022-09-21T09:08:18.118Z,13.35
2022-09-21T09:10:34.987Z,13.26
2022-09-21T09:12:48.753Z,13.51
2022-09-21T09:15:13.385Z,13.78
2022-09-21T09:17:14.860Z,13.79
2022-09-21T09:19:41.029Z,13.90
2022-09-21T09:21:43.585Z,13.74
2022-09-21T09:23:52.825Z,13.78
2022-09-21T09:26:00.353Z,13.67
2022-09-21T09:28:10.929Z,13.79
2022-09-21T09:30:25.601Z,13.84
2022-09-21T09:33:04.687Z,12.98
2022-09-21T09:35:28.929Z,12.66
2022-09-21T09:37:34.131Z,12.40
2022-09-21T09:39:35.811Z,12.57
2022-09-21T09:41:59.334Z,12.78
2022-09-21T09:44:39.043Z,13.28
2022-09-21T09:46:59.405Z,13.67
2022-09-21T09:49:26.838Z,13.72
2022-09-21T09:51:28.606Z,13.87
2022-09-21T09:53:30.835Z,13.55
2022-09-21T09:55:40.370Z,13.02
2022-09-21T09:57:42.091Z,12.65
2022-09-21T09:59:53.986Z,12.66
2022-09-21T10:02:11.265Z,12.73
2022-09-21T10:04:15.438Z,12.99
2022-09-21T10:06:31.682Z,13.02
2022-09-21T10:08:48.849Z,13.17
2022-09-21T10:10:50.512Z,12.92
2022-09-21T10:12:53.061Z,13.07
2022-09-21T10:15:00.873Z,13.35
2022-09-21T10:17:07.819Z,13.56
2022-09-21T10:19:18.723Z,13.82
2022-09-21T10:21:35.099Z,14.33
2022-09-21T10:23:37.254Z,14.52
2022-09-21T10:25:40.297Z,14.73
2022-09-21T10:27:44.617Z,14.78
2022-09-21T10:29:48.089Z,14.13
2022-09-21T10:31:59.619Z,14.10
2022-09-21T10:34:04.304Z,14.29
2022-09-21T10:36:30.502Z,14.85
2022-09-21T10:38:32.411Z,15.13
2022-09-21T10:40:37.261Z,15.46
2022-09-21T10:42:42.437Z,15.57
2022-09-21T10:44:46.589Z,15.94
2022-09-21T10:46:49.290Z,15.53
2022-09-21T10:48:50.983Z,14.93
2022-09-21T10:50:53.669Z,14.59
2022-09-21T10:53:00.409Z,14.46
2022-09-21T10:55:02.478Z,14.68
2022-09-21T10:57:08.161Z,14.85
2022-09-21T10:59:21.758Z,14.86
2022-09-21T11:01:24.029Z,14.95
2022-09-21T11:03:31.376Z,15.19
2022-09-21T11:05:41.929Z,15.33
2022-09-21T11:07:58.839Z,15.61
2022-09-21T11:10:12.371Z,14.73
2022-09-21T11:12:39.383Z,14.27
2022-09-21T11:14:51.438Z,14.35
2022-09-21T11:17:14.076Z,15.03
2022-09-21T11:19:35.532Z,15.50
2022-09-21T11:22:11.973Z,15.82
2022-09-21T11:24:38.420Z,15.84
2022-09-21T11:26:47.090Z,15.49
2022-09-21T11:28:54.586Z,14.86
2022-09-21T11:31:32.242Z,14.77
2022-09-21T11:33:56.667Z,14.11
2022-09-21T11:36:07.238Z,13.78
2022-09-21T11:38:16.076Z,13.74
2022-09-21T11:40:35.980Z,13.92
2022-09-21T11:43:09.879Z,13.65
2022-09-21T11:45:23.709Z,13.64
2022-09-21T11:47:45.606Z,13.65
2022-09-21T11:50:07.833Z,13.83
2022-09-21T11:52:26.114Z,13.42
2022-09-21T11:54:30.656Z,13.28
2022-09-21T11:56:56.079Z,13.10
2022-09-21T11:59:14.615Z,12.86
2022-09-21T12:01:43.296Z,12.89
2022-09-21T12:03:44.823Z,12.74
2022-09-21T12:06:03.850Z,12.54
2022-09-21T12:08:11.368Z,12.73
2022-09-21T12:10:45.489Z,12.74
2022-09-21T12:12:56.049Z,12.87
2022-09-21T12:15:15.985Z,12.91
2022-09-21T12:17:56.474Z,13.07
2022-09-21T12:20:10.519Z,13.11
2022-09-21T12:22:29.682Z,13.05
2022-09-21T12:24:40.055Z,13.14
2022-09-21T12:26:50.450Z,13.46
2022-09-21T12:29:01.052Z,13.30
2022-09-21T12:31:09.186Z,13.32
2022-09-21T12:33:35.136Z,13.39
2022-09-21T12:35:46.917Z,13.42
2022-09-21T12:37:55.115Z,13.66
2022-09-21T12:40:03.050Z,13.68
2022-09-21T12:42:12.333Z,13.79
2022-09-21T12:44:34.381Z,14.11
2022-09-21T12:46:48.712Z,14.33
2022-09-21T12:48:51.566Z,14.36
2022-09-21T12:50:56.399Z,14.54
2022-09-21T12:52:58.322Z,14.71
2022-09-21T12:55:06.004Z,14.06
2022-09-21T12:57:40.808Z,13.97
2022-09-21T12:59:43.522Z,14.16
2022-09-21T13:01:57.286Z,13.73
2022-09-21T13:04:12.980Z,13.40
2022-09-21T13:06:29.617Z,13.30
2022-09-21T13:08:38.519Z,13.48
2022-09-21T13:11:01.549Z,13.89
2022-09-21T13:13:04.126Z,14.17
2022-09-21T13:15:17.653Z,14.23
2022-09-21T13:17:24.658Z,14.40
2022-09-21T13:19:27.969Z,14.16
2022-09-21T13:21:32.135Z,13.52
2022-09-21T13:23:42.186Z,13.12
2022-09-21T13:25:59.036Z,13.11
2022-09-21T13:28:10.239Z,13.22
2022-09-21T13:30:28.622Z,13.22
2022-09-21T13:32:50.991Z,13.18
2022-09-21T13:34:52.839Z,13.25
2022-09-21T13:37:15.801Z,13.36
2022-09-21T13:39:18.941Z,13.43
2022-09-21T13:41:45.551Z,13.46
2022-09-21T13:43:59.720Z,13.42
2022-09-21T13:46:04.543Z,13.71
2022-09-21T13:48:19.527Z,14.06
2022-09-21T13:50:31.592Z,14.51
2022-09-21T13:52:54.375Z,14.46
2022-09-21T13:55:05.637Z,14.53
2022-09-21T13:57:17.552Z,14.61
2022-09-21T13:59:22.548Z,15.02
2022-09-21T14:01:46.843Z,15.01
2022-09-21T14:04:04.418Z,14.97
2022-09-21T14:06:10.265Z,14.68
2022-09-21T14:08:14.922Z,14.70
2022-09-21T14:10:21.299Z,14.73
2022-09-21T14:12:26.967Z,14.43
2022-09-21T14:14:37.539Z,14.03
2022-09-21T14:16:39.898Z,14.05
2022-09-21T14:18:41.782Z,14.21
2022-09-21T14:21:17.741Z,14.10
2022-09-21T14:23:22.335Z,14.13
2022-09-21T14:25:28.686Z,14.31
2022-09-21T14:27:42.252Z,14.21
2022-09-21T14:30:11.283Z,14.08
2022-09-21T14:32:39.557Z,14.00
2022-09-21T14:34:41.710Z,13.43
2022-09-21T14:36:46.644Z,13.43
2022-09-21T14:38:55.416Z,13.42
2022-09-21T14:41:01.013Z,13.28
2022-09-21T14:43:09.163Z,13.26
2022-09-21T14:45:18.387Z,13.21
2022-09-21T14:47:52.025Z,13.28
2022-09-21T14:50:23.049Z,13.19
2022-09-21T14:52:34.465Z,13.17
2022-09-21T14:54:42.092Z,13.29
2022-09-21T14:56:54.229Z,13.57
2022-09-21T14:59:12.528Z,13.46
2022-09-21T15:01:23.050Z,13.50
2022-09-21T15:03:49.025Z,13.71
2022-09-21T15:05:56.373Z,13.52
2022-09-21T15:08:54.869Z,13.28
2022-09-21T15:11:10.352Z,13.24
2022-09-21T15:13:32.500Z,13.22
2022-09-21T15:15:53.490Z,13.14
2022-09-21T15:17:59.751Z,13.14
2022-09-21T15:20:15.750Z,12.93
2022-09-21T15:22:19.894Z,13.14
2022-09-21T15:24:24.992Z,13.10
2022-09-21T15:26:29.885Z,13.23
2022-09-21T15:28:58.050Z,13.61
2022-09-21T15:30:58.550Z,13.76
2022-09-21T15:33:01.324Z,14.21
2022-09-21T15:35:24.590Z,14.72
2022-09-21T15:37:26.302Z,14.91
2022-09-21T15:39:30.641Z,15.10
2022-09-21T15:41:47.584Z,15.35
2022-09-21T15:43:58.045Z,15.80
2022-09-21T15:46:04.819Z,15.81
2022-09-21T15:48:12.434Z,15.53
2022-09-21T15:50:15.164Z,15.36
2022-09-21T15:52:33.857Z,14.42
2022-09-21T15:54:42.749Z,14.54
2022-09-21T15:56:44.850Z,14.31
2022-09-21T15:58:49.959Z,14.15
2022-09-21T16:00:55.645Z,14.05
2022-09-21T16:03:08.402Z,13.78
2022-09-21T16:05:14.949Z,13.55
2022-09-21T16:07:26.982Z,13.44
2022-09-21T16:09:38.621Z,13.38
2022-09-21T16:11:41.332Z,13.07
2022-09-21T16:14:02.866Z,13.03
2022-09-21T16:16:09.110Z,12.84
2022-09-21T16:18:32.101Z,12.83
2022-09-21T16:20:39.645Z,12.74
2022-09-21T16:22:42.714Z,12.64
2022-09-21T16:24:50.418Z,12.59
2022-09-21T16:26:57.950Z,12.61
2022-09-21T16:29:20.294Z,12.80
2022-09-21T16:31:24.812Z,12.79
2022-09-21T16:33:44.407Z,12.68
2022-09-21T16:35:46.334Z,12.66
2022-09-21T16:37:48.180Z,12.56
2022-09-21T16:39:56.172Z,12.53
2022-09-21T16:42:01.820Z,12.60
2022-09-21T16:44:03.658Z,12.58
2022-09-21T16:46:07.570Z,12.57
2022-09-21T16:48:09.807Z,12.72
2022-09-21T16:50:12.733Z,12.78
2022-09-21T16:52:17.031Z,12.88
2022-09-21T16:54:20.613Z,12.73
2022-09-21T16:56:22.564Z,12.64
2022-09-21T16:58:24.234Z,12.73
2022-09-21T17:00:29.651Z,12.82
2022-09-21T17:02:31.603Z,12.93
2022-09-21T17:04:35.034Z,13.03
2022-09-21T17:06:36.840Z,13.02
2022-09-21T17:08:38.439Z,13.08
2022-09-21T17:10:44.239Z,12.94
2022-09-21T17:12:45.831Z,12.66
2022-09-21T17:14:47.698Z,12.41
2022-09-21T17:16:52.082Z,12.38
2022-09-21T17:18:53.643Z,12.44
2022-09-21T17:20:55.378Z,12.46
2022-09-21T17:22:58.287Z,12.54
2022-09-21T17:25:00.058Z,12.60
2022-09-21T17:27:01.764Z,12.50
2022-09-21T17:29:06.078Z,12.39
2022-09-21T17:31:14.414Z,12.33
2022-09-21T17:33:18.181Z,11.98
2022-09-21T17:35:30.898Z,12.05
2022-09-21T17:37:34.150Z,12.09
2022-09-21T17:39:36.944Z,12.17
2022-09-21T17:41:52.575Z,12.22
2022-09-21T17:44:24.221Z,12.17
2022-09-21T17:47:05.751Z,12.10
2022-09-21T17:49:11.546Z,12.11
2022-09-21T17:51:34.321Z,11.92
2022-09-21T17:53:40.952Z,11.94
2022-09-21T17:55:54.856Z,11.96
2022-09-21T17:58:34.893Z,11.98
2022-09-21T18:01:08.142Z,12.04
2022-09-21T18:03:41.440Z,12.07
2022-09-21T18:05:43.888Z,12.07
2022-09-21T18:07:46.132Z,12.07
2022-09-21T18:09:48.442Z,12.07
2022-09-21T18:12:14.312Z,12.09
2022-09-21T18:14:45.938Z,12.02
2022-09-21T18:17:20.530Z,12.09
2022-09-21T18:19:57.924Z,12.13
2022-09-21T18:22:32.755Z,12.07
2022-09-21T18:24:35.982Z,12.04
2022-09-21T18:26:41.047Z,12.07
2022-09-21T18:28:52.099Z,12.04
2022-09-21T18:31:04.052Z,11.94
2022-09-21T18:33:21.379Z,11.94
2022-09-21T18:35:32.813Z,11.95
2022-09-21T18:37:35.448Z,12.00
2022-09-21T18:39:56.043Z,11.96
2022-09-21T18:42:23.305Z,11.99
2022-09-21T18:44:32.269Z,11.84
2022-09-21T18:46:51.132Z,11.82
2022-09-21T18:49:06.243Z,11.80
2022-09-21T18:51:14.670Z,11.77
2022-09-21T18:53:47.715Z,11.75
2022-09-21T18:55:50.922Z,11.72
2022-09-21T18:57:55.295Z,11.76
2022-09-21T18:59:57.726Z,11.74
2022-09-21T19:02:00.550Z,11.80
2022-09-21T19:04:03.289Z,11.90
2022-09-21T19:06:15.011Z,11.95
2022-09-21T19:08:41.527Z,12.00
2022-09-21T19:11:25.532Z,11.87
2022-09-21T19:13:53.911Z,11.88
2022-09-21T19:16:11.934Z,11.82
2022-09-21T19:18:25.611Z,11.86
2022-09-21T19:21:09.400Z,11.87
2022-09-21T19:23:36.163Z,11.85
2022-09-21T19:25:49.734Z,11.77
2022-09-21T19:28:05.882Z,11.75
2022-09-21T19:30:12.862Z,11.74
2022-09-21T19:32:29.495Z,11.67
2022-09-21T19:34:32.039Z,11.62
2022-09-21T19:36:34.251Z,11.62
2022-09-21T19:38:36.531Z,11.65
2022-09-21T19:40:40.239Z,11.68
2022-09-21T19:42:54.530Z,11.69
2022-09-21T19:44:56.665Z,11.59
2022-09-21T19:47:17.303Z,11.51
2022-09-21T19:49:21.248Z,11.42
2022-09-21T19:51:47.968Z,11.37
2022-09-21T19:54:13.634Z,11.27
2022-09-21T19:56:35.861Z,11.30
2022-09-21T19:58:56.718Z,11.35
2022-09-21T20:00:59.458Z,11.32
2022-09-21T20:03:05.963Z,11.38
2022-09-21T20:05:08.120Z,11.35
2022-09-21T20:07:19.529Z,11.41
2022-09-21T20:09:29.376Z,11.43
2022-09-21T20:11:45.077Z,11.35
2022-09-21T20:13:49.926Z,11.40
2022-09-21T20:16:03.354Z,11.35
2022-09-21T20:18:12.134Z,11.36
2022-09-21T20:20:20.714Z,11.32
2022-09-21T20:22:34.096Z,11.23
2022-09-21T20:24:58.661Z,11.31
2022-09-21T20:27:02.159Z,11.28
2022-09-21T20:29:04.041Z,11.17
2022-09-21T20:31:05.674Z,11.23
2022-09-21T20:33:14.325Z,11.31
2022-09-21T20:35:17.424Z,11.26
2022-09-21T20:37:19.365Z,11.26
2022-09-21T20:39:20.943Z,11.27
2022-09-21T20:41:24.556Z,11.28
2022-09-21T20:43:31.801Z,11.24
2022-09-21T20:45:35.557Z,11.23
2022-09-21T20:47:37.996Z,11.26
2022-09-21T20:49:39.808Z,11.30
2022-09-21T20:51:41.411Z,11.26
2022-09-21T20:53:43.230Z,11.21
2022-09-21T20:55:53.539Z,11.26
2022-09-21T20:57:55.171Z,11.24
2022-09-21T20:59:57.628Z,11.30
2022-09-21T21:01:59.265Z,11.25
2022-09-21T21:04:03.336Z,11.13
2022-09-21T21:06:12.854Z,11.10
2022-09-21T21:08:14.409Z,11.15
2022-09-21T21:10:17.409Z,11.17
2022-09-21T21:12:19.249Z,11.15
2022-09-21T21:14:21.433Z,11.15
2022-09-21T21:16:23.706Z,11.14
2022-09-21T21:18:25.688Z,11.13
2022-09-21T21:20:28.515Z,11.09
2022-09-21T21:22:30.186Z,11.16
2022-09-21T21:24:41.051Z,11.18
2022-09-21T21:27:01.364Z,11.02
2022-09-21T21:29:04.729Z,10.91
2022-09-21T21:31:06.343Z,10.97
2022-09-21T21:33:07.896Z,10.96
2022-09-21T21:35:09.620Z,10.80
2022-09-21T21:37:12.310Z,10.77
2022-09-21T21:39:13.884Z,10.78
2022-09-21T21:41:15.543Z,10.80
2022-09-21T21:43:17.125Z,10.78
2022-09-21T21:45:20.866Z,10.83
2022-09-21T21:49:44.073Z,10.80
2022-09-21T21:51:46.000Z,10.82
2022-09-21T21:53:47.656Z,10.83
2022-09-21T21:55:49.207Z,10.79
2022-09-21T21:57:51.410Z,10.82
2022-09-21T21:59:53.121Z,10.80
2022-09-21T22:01:54.885Z,10.86
2022-09-21T22:03:57.463Z,10.84
2022-09-21T22:05:59.053Z,10.82
2022-09-21T22:08:00.783Z,10.86
2022-09-21T22:10:03.095Z,10.87
2022-09-21T22:12:04.739Z,10.92
2022-09-21T22:14:06.793Z,10.93
2022-09-21T22:16:19.403Z,10.92
2022-09-21T22:18:21.008Z,10.92
2022-09-21T22:20:23.816Z,10.91
2022-09-21T22:22:25.403Z,10.87
2022-09-21T22:24:26.967Z,10.77
2022-09-21T22:26:30.693Z,10.78
2022-09-21T22:28:33.244Z,10.84
2022-09-21T22:30:34.894Z,10.79
2022-09-21T22:32:36.851Z,10.79
2022-09-21T22:34:38.452Z,10.71
2022-09-21T22:36:40.760Z,10.63
2022-09-21T22:38:43.278Z,10.60
2022-09-21T22:40:45.784Z,10.56
2022-09-21T22:42:47.902Z,10.50
2022-09-21T22:44:49.621Z,10.51
2022-09-21T22:46:51.226Z,10.55
2022-09-21T22:48:53.071Z,10.52
2022-09-21T22:50:55.267Z,10.57
2022-09-21T22:52:56.891Z,10.57
2022-09-21T22:54:58.464Z,10.59
2022-09-21T22:57:00.277Z,10.50
2022-09-21T22:59:05.574Z,10.51
2022-09-21T23:01:16.744Z,10.50
2022-09-21T23:03:18.413Z,10.54
2022-09-21T23:05:19.976Z,10.58
2022-09-21T23:07:21.509Z,10.60
2022-09-21T23:09:23.144Z,10.51
2022-09-21T23:11:30.720Z,10.49
2022-09-21T23:13:32.633Z,10.47
2022-09-21T23:15:34.450Z,10.51
2022-09-21T23:17:36.265Z,10.54
2022-09-21T23:19:37.840Z,10.50
2022-09-21T23:21:39.464Z,10.51
2022-09-21T23:23:41.229Z,10.55
2022-09-21T23:25:42.937Z,10.52
2022-09-21T23:27:44.579Z,10.57
2022-09-21T23:29:46.124Z,10.57
2022-09-21T23:31:47.764Z,10.54
2022-09-21T23:33:51.757Z,10.40
2022-09-21T23:35:53.401Z,10.35
2022-09-21T23:37:54.920Z,10.34
2022-09-21T23:39:56.576Z,10.35
2022-09-21T23:41:58.168Z,10.37
2022-09-21T23:43:59.970Z,10.36
2022-09-21T23:46:02.121Z,10.36
2022-09-21T23:48:03.878Z,10.36
2022-09-21T23:50:06.081Z,10.37
2022-09-21T23:52:07.726Z,10.42
2022-09-21T23:54:09.332Z,10.43
2022-09-21T23:56:14.128Z,10.41
2022-09-21T23:58:16.131Z,10.47
